createdAt,value
2022-11-22T00:00:56.771Z,65.39
2022-11-22T00:03:24.801Z,65.03
2022-11-22T00:06:05.077Z,65.17
2022-11-22T00:08:40.872Z,65.10
2022-11-22T00:11:21.313Z,65.54
2022-11-22T00:13:58.526Z,65.01
2022-11-22T00:16:38.187Z,64.19
2022-11-22T00:19:30.233Z,64.87
2022-11-22T00:22:06.248Z,64.81
2022-11-22T00:24:48.150Z,65.29
2022-11-22T00:27:25.497Z,65.25
2022-11-22T00:30:16.534Z,65.00
2022-11-22T00:33:10.585Z,65.12
2022-11-22T00:35:58.670Z,64.98
2022-11-22T00:39:05.605Z,65.36
2022-11-22T00:42:12.269Z,65.54
2022-11-22T00:44:41.104Z,65.25
2022-11-22T00:47:09.137Z,65.51
2022-11-22T00:49:37.125Z,64.97
2022-11-22T00:52:05.320Z,65.36
2022-11-22T00:54:42.610Z,65.50
2022-11-22T00:57:25.476Z,65.38
2022-11-22T01:00:02.657Z,65.64
2022-11-22T01:02:56.734Z,65.59
2022-11-22T01:05:30.463Z,65.40
2022-11-22T01:08:07.087Z,65.49
2022-11-22T01:10:56.258Z,65.36
2022-11-22T01:13:47.283Z,64.70
2022-11-22T01:16:23.972Z,65.85
2022-11-22T01:19:26.541Z,65.33
2022-11-22T01:25:08.988Z,65.32
2022-11-22T01:27:51.371Z,64.91
2022-11-22T01:30:38.914Z,65.17
2022-11-22T01:33:07.086Z,65.46
2022-11-22T01:35:35.276Z,65.62
2022-11-22T01:38:03.541Z,65.60
2022-11-22T01:40:31.665Z,66.06
2022-11-22T01:43:15.777Z,66.33
2022-11-22T01:46:00.862Z,65.82
2022-11-22T01:48:52.437Z,66.23
2022-11-22T01:51:46.423Z,66.32
2022-11-22T01:54:51.929Z,66.62
2022-11-22T02:01:04.322Z,66.43
2022-11-22T02:03:49.649Z,66.27
2022-11-22T02:06:30.040Z,66.64
2022-11-22T02:09:12.972Z,66.55
2022-11-22T02:11:53.817Z,66.54
2022-11-22T02:14:32.187Z,66.70
2022-11-22T02:17:09.986Z,66.32
2022-11-22T02:20:02.982Z,66.64
2022-11-22T02:22:46.036Z,66.42
2022-11-22T02:25:18.567Z,66.46
2022-11-22T02:27:48.003Z,66.57
2022-11-22T02:30:16.961Z,66.34
2022-11-22T02:32:45.610Z,66.73
2022-11-22T02:35:24.212Z,66.75
2022-11-22T02:38:04.850Z,66.94
2022-11-22T02:40:53.803Z,67.11
2022-11-22T02:43:33.637Z,67.18
2022-11-22T02:46:21.899Z,67.08
2022-11-22T02:48:52.583Z,66.62
2022-11-22T02:51:22.375Z,67.07
2022-11-22T02:54:09.687Z,67.79
2022-11-22T02:58:08.607Z,67.30
2022-11-22T03:00:41.098Z,67.00
2022-11-22T03:03:18.526Z,67.22
2022-11-22T03:06:12.521Z,66.89
2022-11-22T03:08:45.809Z,67.03
2022-11-22T03:11:24.380Z,66.84
2022-11-22T03:13:52.571Z,66.93
2022-11-22T03:16:21.841Z,67.11
2022-11-22T03:18:49.783Z,66.94
2022-11-22T03:21:17.696Z,66.68
2022-11-22T03:23:50.728Z,66.55
2022-11-22T03:26:25.119Z,66.44
2022-11-22T03:29:07.346Z,67.00
2022-11-22T03:31:53.148Z,67.01
2022-11-22T03:34:39.754Z,67.10
2022-11-22T03:37:19.045Z,67.41
2022-11-22T03:40:07.200Z,67.53
2022-11-22T03:42:54.316Z,67.61
2022-11-22T03:45:27.619Z,67.06
2022-11-22T03:48:19.256Z,67.28
2022-11-22T03:51:13.509Z,67.47
2022-11-22T03:54:23.435Z,67.22
2022-11-22T03:57:15.121Z,67.37
2022-11-22T04:00:05.388Z,67.83
2022-11-22T04:02:43.053Z,67.68
2022-11-22T04:05:13.050Z,67.83
2022-11-22T04:07:41.056Z,67.51
2022-11-22T04:10:09.932Z,67.82
2022-11-22T04:12:37.969Z,68.07
2022-11-22T04:15:19.813Z,68.25
2022-11-22T04:17:57.885Z,68.16
2022-11-22T04:20:51.409Z,68.02
2022-11-22T04:23:41.427Z,67.30
2022-11-22T04:26:32.541Z,67.85
2022-11-22T04:29:35.907Z,68.61
2022-11-22T04:35:14.876Z,68.19
2022-11-22T04:38:02.118Z,68.60
2022-11-22T04:41:04.092Z,68.89
2022-11-22T04:44:06.274Z,68.99
2022-11-22T04:47:13.157Z,68.78
2022-11-22T04:50:44.624Z,69.20
2022-11-22T04:53:26.679Z,69.24
2022-11-22T04:55:54.805Z,69.93
2022-11-22T04:58:23.226Z,69.87
2022-11-22T05:00:51.627Z,69.85
2022-11-22T05:03:19.905Z,69.50
2022-11-22T05:06:10.704Z,69.83
2022-11-22T05:08:49.858Z,69.60
2022-11-22T05:11:21.742Z,69.68
2022-11-22T05:14:24.682Z,69.85
2022-11-22T05:17:16.906Z,70.11
2022-11-22T05:20:10.273Z,70.33
2022-11-22T05:23:18.569Z,69.94
2022-11-22T05:26:32.626Z,69.88
2022-11-22T05:29:23.890Z,69.59
2022-11-22T05:32:42.711Z,69.69
2022-11-22T05:35:38.188Z,69.82
2022-11-22T05:38:56.348Z,70.01
2022-11-22T05:41:38.561Z,69.99
2022-11-22T05:44:07.215Z,69.96
2022-11-22T05:46:35.766Z,70.80
2022-11-22T05:49:03.701Z,70.85
2022-11-22T05:51:34.415Z,70.42
2022-11-22T05:54:13.681Z,70.85
2022-11-22T05:56:57.372Z,70.68
2022-11-22T05:59:31.411Z,70.45
2022-11-22T06:02:19.435Z,70.36
2022-11-22T06:05:00.251Z,70.16
2022-11-22T06:07:48.909Z,70.00
2022-11-22T06:10:44.275Z,70.09
2022-11-22T06:13:32.889Z,69.87
2022-11-22T06:16:12.935Z,69.87
2022-11-22T06:19:14.272Z,70.07
2022-11-22T06:22:10.981Z,70.27
2022-11-22T06:25:06.477Z,70.34
2022-11-22T06:30:54.392Z,70.40
2022-11-22T06:33:23.835Z,70.04
2022-11-22T06:35:51.747Z,69.92
2022-11-22T06:38:19.909Z,69.86
2022-11-22T06:40:47.984Z,69.87
2022-11-22T06:43:16.531Z,69.84
2022-11-22T06:46:06.773Z,69.80
2022-11-22T06:48:47.141Z,70.26
2022-11-22T06:51:25.881Z,69.92
2022-11-22T06:54:21.862Z,69.78
2022-11-22T06:57:20.938Z,69.69
2022-11-22T07:00:04.009Z,69.43
2022-11-22T07:02:47.397Z,70.17
2022-11-22T07:05:26.216Z,69.64
2022-11-22T07:08:23.855Z,69.96
2022-11-22T07:11:18.099Z,69.88
2022-11-22T07:14:06.589Z,70.05
2022-11-22T07:16:56.542Z,70.26
2022-11-22T07:19:38.695Z,70.21
2022-11-22T07:22:28.141Z,70.53
2022-11-22T07:25:02.461Z,70.49
2022-11-22T07:27:30.672Z,70.17
2022-11-22T07:29:58.667Z,70.13
2022-11-22T07:32:26.644Z,70.41
2022-11-22T07:35:05.748Z,70.58
2022-11-22T07:37:52.164Z,70.83
2022-11-22T07:40:32.478Z,70.79
2022-11-22T07:43:23.452Z,70.90
2022-11-22T07:46:36.752Z,70.99
2022-11-22T07:49:18.915Z,70.80
2022-11-22T07:52:13.753Z,71.20
2022-11-22T07:58:13.419Z,71.81
2022-11-22T08:00:52.979Z,71.23
2022-11-22T08:04:05.725Z,71.74
2022-11-22T08:06:42.522Z,71.69
2022-11-22T08:09:25.608Z,71.88
2022-11-22T08:14:49.922Z,72.78
2022-11-22T08:17:17.881Z,73.20
2022-11-22T08:19:46.080Z,73.35
2022-11-22T08:22:14.476Z,73.56
2022-11-22T08:25:15.630Z,73.35
2022-11-22T08:27:58.653Z,74.11
2022-11-22T08:30:49.747Z,74.31
2022-11-22T08:33:24.825Z,74.30
2022-11-22T08:36:05.280Z,74.19
2022-11-22T08:38:54.523Z,73.84
2022-11-22T08:41:39.815Z,74.35
2022-11-22T08:44:23.118Z,74.28
2022-11-22T08:50:33.307Z,73.80
2022-11-22T08:53:27.806Z,73.63
2022-11-22T08:56:17.314Z,73.30
2022-11-22T08:59:26.812Z,73.32
2022-11-22T09:02:03.670Z,72.95
2022-11-22T09:04:33.599Z,72.83
2022-11-22T09:09:49.702Z,73.05
2022-11-22T09:12:17.844Z,73.16
2022-11-22T09:14:53.336Z,72.97
2022-11-22T09:17:41.710Z,73.04
2022-11-22T09:20:17.288Z,73.41
2022-11-22T09:23:13.370Z,73.70
2022-11-22T09:26:39.786Z,73.74
2022-11-22T09:29:36.649Z,73.71
2022-11-22T09:32:27.149Z,74.29
2022-11-22T09:35:22.896Z,74.54
2022-11-22T09:38:35.777Z,74.36
2022-11-22T09:41:44.792Z,73.70
2022-11-22T09:48:09.687Z,74.31
2022-11-22T09:51:11.230Z,74.61
2022-11-22T09:53:49.847Z,74.46
2022-11-22T09:56:19.751Z,74.26
2022-11-22T09:58:51.689Z,73.64
2022-11-22T10:01:24.265Z,73.16
2022-11-22T10:04:00.169Z,72.82
2022-11-22T10:06:43.799Z,72.73
2022-11-22T10:09:29.516Z,72.23
2022-11-22T10:12:16.502Z,71.75
2022-11-22T10:15:08.934Z,72.15
2022-11-22T10:17:58.604Z,72.34
2022-11-22T10:20:59.729Z,72.08
2022-11-22T10:23:45.139Z,71.86
2022-11-22T10:26:34.267Z,71.71
2022-11-22T10:33:17.560Z,70.44
2022-11-22T10:36:57.518Z,69.85
2022-11-22T10:39:52.415Z,70.01
2022-11-22T10:42:56.389Z,69.59
2022-11-22T10:45:30.895Z,69.58
2022-11-22T10:48:12.171Z,69.25
2022-11-22T10:50:52.547Z,68.70
2022-11-22T10:53:32.909Z,69.32
2022-11-22T10:56:18.945Z,68.71
2022-11-22T10:59:20.421Z,68.54
2022-11-22T11:02:09.010Z,67.53
2022-11-22T11:05:02.066Z,67.33
2022-11-22T11:07:56.669Z,67.43
2022-11-22T11:10:57.101Z,68.29
2022-11-22T11:14:02.111Z,68.05
2022-11-22T11:17:03.935Z,68.57
2022-11-22T11:19:51.133Z,67.46
2022-11-22T11:23:13.700Z,67.56
2022-11-22T11:26:01.705Z,67.53
2022-11-22T11:28:56.343Z,67.45
2022-11-22T11:34:34.683Z,67.38
2022-11-22T11:37:05.644Z,67.57
2022-11-22T11:39:39.373Z,67.24
2022-11-22T11:42:27.924Z,66.90
2022-11-22T11:44:56.704Z,66.48
2022-11-22T11:47:51.722Z,66.17
2022-11-22T11:50:25.447Z,66.31
2022-11-22T11:52:56.734Z,66.12
2022-11-22T11:55:24.898Z,66.19
2022-11-22T11:57:55.060Z,65.70
2022-11-22T12:00:28.096Z,66.16
2022-11-22T12:03:01.626Z,65.79
2022-11-22T12:05:32.642Z,65.24
2022-11-22T12:08:02.333Z,65.57
2022-11-22T12:10:39.695Z,64.84
2022-11-22T12:13:16.787Z,64.75
2022-11-22T12:15:55.863Z,64.77
2022-11-22T12:18:47.125Z,64.21
2022-11-22T12:21:23.859Z,64.00
2022-11-22T12:24:13.235Z,62.67
2022-11-22T12:26:45.502Z,63.34
2022-11-22T12:29:18.016Z,63.75
2022-11-22T12:31:53.225Z,63.54
2022-11-22T12:34:32.203Z,63.34
2022-11-22T12:37:14.203Z,63.01
2022-11-22T12:39:54.612Z,63.48
2022-11-22T12:42:49.704Z,63.64
2022-11-22T12:45:34.222Z,63.89
2022-11-22T12:48:24.398Z,63.54
2022-11-22T12:50:57.792Z,64.43
2022-11-22T12:53:45.460Z,64.35
2022-11-22T12:56:54.548Z,64.02
2022-11-22T12:59:52.748Z,63.83
2022-11-22T13:06:21.348Z,64.68
2022-11-22T13:12:32.636Z,64.58
2022-11-22T13:15:01.717Z,64.05
2022-11-22T13:17:35.792Z,64.18
2022-11-22T13:20:09.717Z,63.87
2022-11-22T13:22:48.469Z,64.04
2022-11-22T13:25:47.988Z,64.00
2022-11-22T13:28:33.132Z,64.07
2022-11-22T13:31:19.415Z,63.71
2022-11-22T13:34:39.031Z,63.18
2022-11-22T13:37:22.814Z,62.90
2022-11-22T13:40:14.897Z,62.84
2022-11-22T13:43:13.755Z,62.56
2022-11-22T13:46:23.180Z,62.84
2022-11-22T13:49:38.919Z,62.88
2022-11-22T13:52:50.779Z,62.75
2022-11-22T13:55:37.219Z,61.83
2022-11-22T13:58:52.199Z,62.12
2022-11-22T14:01:55.224Z,62.01
2022-11-22T14:04:46.282Z,61.97
2022-11-22T14:07:32.874Z,62.43
2022-11-22T14:10:02.845Z,61.86
2022-11-22T14:13:11.468Z,61.96
2022-11-22T14:16:09.083Z,62.24
2022-11-22T14:19:05.375Z,62.60
2022-11-22T14:22:11.180Z,61.76
2022-11-22T14:25:21.836Z,61.45
2022-11-22T14:31:28.888Z,61.93
2022-11-22T14:34:24.647Z,61.53
2022-11-22T14:37:52.356Z,61.50
2022-11-22T14:41:05.104Z,60.86
2022-11-22T14:44:03.202Z,60.96
2022-11-22T14:47:25.813Z,60.79
2022-11-22T14:49:56.526Z,60.78
2022-11-22T14:52:27.661Z,60.91
2022-11-22T14:54:59.364Z,60.77
2022-11-22T14:57:30.828Z,60.28
2022-11-22T15:00:13.613Z,60.12
2022-11-22T15:03:11.810Z,60.57
2022-11-22T15:09:20.792Z,60.10
2022-11-22T15:09:53.864Z,60.00
2022-11-22T15:13:10.714Z,60.38
2022-11-22T15:57:45.519Z,61.83
2022-11-22T16:01:01.510Z,61.82
2022-11-22T16:04:19.010Z,61.29
2022-11-22T16:07:14.370Z,61.60
2022-11-22T16:10:09.574Z,62.26
2022-11-22T16:12:48.288Z,62.15
2022-11-22T16:15:55.223Z,61.36
2022-11-22T16:18:48.396Z,62.10
2022-11-22T16:21:33.524Z,61.82
2022-11-22T16:24:44.969Z,61.73
2022-11-22T16:27:48.776Z,62.01
2022-11-22T16:33:48.575Z,61.49
2022-11-22T16:36:18.785Z,61.49
2022-11-22T16:38:47.433Z,61.50
2022-11-22T16:41:20.303Z,61.94
2022-11-22T16:44:03.036Z,62.01
2022-11-22T16:46:32.324Z,61.72
2022-11-22T16:49:01.977Z,61.72
2022-11-22T16:51:31.190Z,61.68
2022-11-22T16:54:03.410Z,61.92
2022-11-22T16:56:34.160Z,62.17
2022-11-22T16:59:12.297Z,61.91
2022-11-22T17:01:44.348Z,62.39
2022-11-22T17:04:27.943Z,62.28
2022-11-22T17:07:03.785Z,62.38
2022-11-22T17:09:35.802Z,62.50
2022-11-22T17:12:15.211Z,62.63
2022-11-22T17:15:02.118Z,62.43
2022-11-22T17:17:44.987Z,62.07
2022-11-22T17:20:18.290Z,62.24
2022-11-22T17:22:54.036Z,62.13
2022-11-22T17:25:25.923Z,62.60
2022-11-22T17:27:54.328Z,62.12
2022-11-22T17:30:22.702Z,62.07
2022-11-22T17:32:50.730Z,62.65
2022-11-22T17:35:20.281Z,62.05
2022-11-22T17:37:48.292Z,62.52
2022-11-22T17:40:17.050Z,62.15
2022-11-22T17:42:45.305Z,61.90
2022-11-22T17:45:13.136Z,61.75
2022-11-22T17:47:43.561Z,62.46
2022-11-22T17:50:11.809Z,62.55
2022-11-22T17:52:41.131Z,62.52
2022-11-22T17:55:14.194Z,62.45
2022-11-22T17:57:42.597Z,62.50
2022-11-22T18:00:11.621Z,62.63
2022-11-22T18:02:40.080Z,62.80
2022-11-22T18:05:09.799Z,63.22
2022-11-22T18:07:39.762Z,63.04
2022-11-22T18:10:10.968Z,63.51
2022-11-22T18:12:42.185Z,63.63
2022-11-22T18:15:11.892Z,63.59
2022-11-22T18:17:39.942Z,63.56
2022-11-22T18:20:09.543Z,63.82
2022-11-22T18:22:37.874Z,63.97
2022-11-22T18:25:06.708Z,63.43
2022-11-22T18:27:41.934Z,63.56
2022-11-22T18:30:12.936Z,63.29
2022-11-22T18:32:41.316Z,63.76
2022-11-22T18:35:11.888Z,63.17
2022-11-22T18:37:39.849Z,63.15
2022-11-22T18:40:09.737Z,63.65
2022-11-22T18:42:39.571Z,63.33
2022-11-22T18:45:09.250Z,63.46
2022-11-22T18:47:37.580Z,63.47
2022-11-22T18:50:11.015Z,62.91
2022-11-22T18:52:40.601Z,62.92
2022-11-22T18:55:09.993Z,63.18
2022-11-22T18:57:39.554Z,63.37
2022-11-22T19:00:09.152Z,63.66
2022-11-22T19:02:37.146Z,63.02
2022-11-22T19:05:05.920Z,63.08
2022-11-22T19:07:34.340Z,63.12
2022-11-22T19:10:02.794Z,62.81
2022-11-22T19:12:31.259Z,62.98
2022-11-22T19:15:00.973Z,63.21
2022-11-22T19:17:29.127Z,62.73
2022-11-22T19:19:59.271Z,62.78
2022-11-22T19:22:27.690Z,63.17
2022-11-22T19:24:55.772Z,62.80
2022-11-22T19:27:24.863Z,62.54
2022-11-22T19:29:53.510Z,63.05
2022-11-22T19:32:23.286Z,63.04
2022-11-22T19:34:52.245Z,62.83
2022-11-22T19:37:22.276Z,62.72
2022-11-22T19:39:50.602Z,62.77
2022-11-22T19:42:20.726Z,62.95
2022-11-22T19:44:59.283Z,62.94
2022-11-22T19:47:37.622Z,62.91
2022-11-22T19:50:09.771Z,62.39
2022-11-22T19:52:38.386Z,62.74
2022-11-22T19:55:08.644Z,62.77
2022-11-22T19:57:37.246Z,62.78
2022-11-22T20:00:07.049Z,63.05
2022-11-22T20:02:37.228Z,63.34
2022-11-22T20:05:06.178Z,63.76
2022-11-22T20:07:34.704Z,63.30
2022-11-22T20:10:04.375Z,63.70
2022-11-22T20:12:32.361Z,63.89
2022-11-22T20:15:00.849Z,63.90
2022-11-22T20:17:31.086Z,63.78
2022-11-22T20:20:00.657Z,63.45
2022-11-22T20:22:29.093Z,63.36
2022-11-22T20:24:57.172Z,64.31
2022-11-22T20:27:25.135Z,63.77
2022-11-22T20:29:53.241Z,64.52
2022-11-22T20:32:21.353Z,64.45
2022-11-22T20:34:49.390Z,64.31
2022-11-22T20:37:19.132Z,64.60
2022-11-22T20:39:47.415Z,64.72
2022-11-22T20:45:08.772Z,64.28
2022-11-22T20:47:37.050Z,64.98
2022-11-22T20:50:06.079Z,64.74
2022-11-22T20:52:35.730Z,64.91
2022-11-22T20:55:05.521Z,64.91
2022-11-22T20:57:34.781Z,65.23
2022-11-22T21:00:03.121Z,65.66
2022-11-22T21:02:34.510Z,65.91
2022-11-22T21:05:02.617Z,66.62
2022-11-22T21:07:30.802Z,67.18
2022-11-22T21:10:00.553Z,66.88
2022-11-22T21:12:28.757Z,67.33
2022-11-22T21:14:56.863Z,67.52
2022-11-22T21:18:02.072Z,67.64
2022-11-22T21:20:14.306Z,67.84
2022-11-22T21:22:43.251Z,68.12
2022-11-22T21:25:12.701Z,68.15
2022-11-22T21:27:40.985Z,68.03
2022-11-22T21:30:10.375Z,68.06
2022-11-22T21:32:38.278Z,68.16
2022-11-22T21:35:07.341Z,68.02
2022-11-22T21:37:35.850Z,68.54
2022-11-22T21:40:03.864Z,68.21
2022-11-22T21:42:33.213Z,68.27
2022-11-22T21:45:01.220Z,69.17
2022-11-22T21:47:29.395Z,69.27
2022-11-22T21:49:57.359Z,69.50
2022-11-22T21:52:25.407Z,69.46
2022-11-22T21:54:54.401Z,69.82
2022-11-22T21:57:22.465Z,69.45
2022-11-22T21:59:52.035Z,70.20
2022-11-22T22:02:20.027Z,70.44
2022-11-22T22:04:48.179Z,70.70
2022-11-22T22:07:36.608Z,70.48
2022-11-22T22:10:06.330Z,70.83
2022-11-22T22:12:34.679Z,71.01
2022-11-22T22:15:04.728Z,70.91
2022-11-22T22:17:33.044Z,71.38
2022-11-22T22:20:01.390Z,71.20
2022-11-22T22:22:29.635Z,70.88
2022-11-22T22:24:57.766Z,70.97
2022-11-22T22:27:25.824Z,70.65
2022-11-22T22:29:54.163Z,69.98
2022-11-22T22:32:25.494Z,70.42
2022-11-22T22:34:53.460Z,70.04
2022-11-22T22:37:21.616Z,69.57
2022-11-22T22:39:51.738Z,69.89
2022-11-22T22:42:20.288Z,69.75
2022-11-22T22:44:48.601Z,70.30
2022-11-22T22:47:16.539Z,70.42
2022-11-22T22:49:45.934Z,70.03
2022-11-22T22:52:13.996Z,70.17
2022-11-22T22:54:41.966Z,70.73
2022-11-22T22:57:09.831Z,70.79
2022-11-22T22:59:37.993Z,70.36
2022-11-22T23:02:05.949Z,70.46
2022-11-22T23:04:33.985Z,70.65
2022-11-22T23:07:03.852Z,70.62
2022-11-22T23:09:32.011Z,70.46
2022-11-22T23:12:12.231Z,70.67
2022-11-22T23:14:41.124Z,70.30
2022-11-22T23:17:11.683Z,70.63
2022-11-22T23:19:40.250Z,70.68
2022-11-22T23:22:10.206Z,70.75
2022-11-22T23:24:38.241Z,70.87
2022-11-22T23:27:06.396Z,71.06
2022-11-22T23:29:35.978Z,71.62
2022-11-22T23:32:04.072Z,71.41
2022-11-22T23:34:31.950Z,71.86
2022-11-22T23:36:59.849Z,71.63
2022-11-22T23:39:29.298Z,71.75
2022-11-22T23:41:57.503Z,71.03
2022-11-22T23:44:25.617Z,71.37
2022-11-22T23:46:53.677Z,71.68
2022-11-22T23:49:21.686Z,71.98
2022-11-22T23:51:50.296Z,71.86
2022-11-22T23:54:18.266Z,71.87
2022-11-22T23:56:47.572Z,71.55
2022-11-22T23:59:15.700Z,71.88
